createdAt,value
2023-04-23T00:01:28.171Z,68.26
2023-04-23T00:03:58.919Z,69.09
2023-04-23T00:06:27.716Z,67.54
2023-04-23T00:08:56.198Z,67.69
2023-04-23T00:11:24.287Z,69.29
2023-04-23T00:13:52.837Z,69.54
2023-04-23T00:16:21.914Z,68.41
2023-04-23T00:18:51.300Z,70.30
2023-04-23T00:21:19.181Z,68.09
2023-04-23T00:23:47.614Z,69.99
2023-04-23T00:26:15.503Z,70.34
2023-04-23T00:28:43.493Z,69.66
2023-04-23T00:31:11.484Z,69.69
2023-04-23T00:33:39.602Z,71.27
2023-04-23T00:36:09.768Z,70.72
2023-04-23T00:38:37.689Z,69.78
2023-04-23T00:41:06.103Z,69.90
2023-04-23T00:43:34.829Z,69.40
2023-04-23T00:46:02.995Z,69.12
2023-04-23T00:48:31.269Z,70.25
2023-04-23T00:51:01.269Z,70.67
2023-04-23T00:53:31.232Z,71.76
2023-04-23T00:55:59.668Z,71.12
2023-04-23T00:58:27.986Z,70.65
2023-04-23T01:00:56.896Z,69.67
2023-04-23T01:03:26.457Z,70.30
2023-04-23T01:05:54.635Z,69.11
2023-04-23T01:08:25.722Z,68.89
2023-04-23T01:10:55.247Z,70.02
2023-04-23T01:13:26.573Z,70.48
2023-04-23T01:15:54.836Z,71.94
2023-04-23T01:18:23.120Z,72.68
2023-04-23T01:20:51.585Z,73.80
2023-04-23T01:23:21.140Z,72.82
2023-04-23T01:25:49.403Z,73.89
2023-04-23T01:28:17.526Z,71.43
2023-04-23T01:30:46.645Z,72.02
2023-04-23T01:33:15.166Z,72.21
2023-04-23T01:35:45.147Z,72.28
2023-04-23T01:38:15.390Z,70.53
2023-04-23T01:40:45.325Z,70.71
2023-04-23T01:43:13.519Z,70.83
2023-04-23T01:45:42.491Z,69.84
2023-04-23T01:48:11.119Z,69.68
2023-04-23T01:50:39.813Z,70.07
2023-04-23T01:53:07.710Z,70.88
2023-04-23T01:55:36.164Z,72.01
2023-04-23T01:58:05.826Z,72.26
2023-04-23T02:00:33.755Z,72.31
2023-04-23T02:03:01.980Z,74.01
2023-04-23T02:05:30.840Z,72.21
2023-04-23T02:07:58.745Z,70.92
2023-04-23T02:10:27.131Z,71.09
2023-04-23T02:12:55.388Z,72.08
2023-04-23T02:15:24.773Z,72.18
2023-04-23T02:17:53.308Z,72.15
2023-04-23T02:20:22.524Z,71.21
2023-04-23T02:22:51.554Z,70.03
2023-04-23T02:25:21.918Z,69.85
2023-04-23T02:27:50.611Z,69.53
2023-04-23T02:30:18.555Z,69.98
2023-04-23T02:32:47.990Z,70.08
2023-04-23T02:35:15.955Z,69.24
2023-04-23T02:37:43.870Z,69.30
2023-04-23T02:40:12.735Z,71.11
2023-04-23T02:42:43.239Z,70.38
2023-04-23T02:45:13.002Z,72.15
2023-04-23T02:47:41.193Z,70.30
2023-04-23T02:50:11.499Z,75.12
2023-04-23T02:52:39.443Z,75.93
2023-04-23T02:55:09.054Z,77.03
2023-04-23T02:57:37.557Z,75.20
2023-04-23T03:00:07.659Z,75.49
2023-04-23T03:02:41.298Z,75.72
2023-04-23T03:05:11.470Z,76.41
2023-04-23T03:07:39.621Z,77.62
2023-04-23T03:10:08.764Z,77.02
2023-04-23T03:12:37.068Z,78.30
2023-04-23T03:15:05.794Z,79.34
2023-04-23T03:17:35.993Z,77.33
2023-04-23T03:20:05.767Z,75.31
2023-04-23T03:22:47.344Z,75.21
2023-04-23T03:25:16.498Z,76.09
2023-04-23T03:27:44.578Z,75.77
2023-04-23T03:30:13.148Z,76.14
2023-04-23T03:32:41.555Z,75.22
2023-04-23T03:35:10.765Z,74.42
2023-04-23T03:37:44.063Z,74.36
2023-04-23T03:40:12.490Z,74.74
2023-04-23T03:42:42.300Z,74.56
2023-04-23T03:45:14.533Z,75.43
2023-04-23T03:47:42.564Z,76.20
2023-04-23T03:50:13.111Z,76.44
2023-04-23T03:52:43.809Z,75.60
2023-04-23T03:55:20.612Z,75.75
2023-04-23T03:57:48.761Z,76.48
2023-04-23T04:00:26.802Z,76.99
2023-04-23T04:02:55.214Z,76.12
2023-04-23T04:05:24.395Z,75.59
2023-04-23T04:07:56.080Z,76.12
2023-04-23T04:10:26.356Z,74.74
2023-04-23T04:12:55.280Z,74.68
2023-04-23T04:15:23.664Z,75.42
2023-04-23T04:17:51.511Z,76.14
2023-04-23T04:20:19.469Z,77.29
2023-04-23T04:22:47.451Z,76.79
2023-04-23T04:25:16.714Z,76.71
2023-04-23T04:27:44.558Z,77.68
2023-04-23T04:30:13.221Z,75.86
2023-04-23T04:32:42.241Z,74.99
2023-04-23T04:35:10.584Z,75.00
2023-04-23T04:37:38.410Z,74.31
2023-04-23T04:40:08.066Z,74.73
2023-04-23T04:42:37.305Z,74.28
2023-04-23T04:45:06.047Z,73.81
2023-04-23T04:47:33.856Z,74.72
2023-04-23T04:50:01.675Z,74.14
2023-04-23T04:52:29.480Z,73.34
2023-04-23T04:54:57.339Z,73.46
2023-04-23T04:57:25.231Z,72.85
2023-04-23T04:59:55.188Z,72.25
2023-04-23T05:02:23.492Z,73.33
2023-04-23T05:04:52.372Z,72.88
2023-04-23T05:07:20.251Z,72.94
2023-04-23T05:09:48.213Z,72.79
2023-04-23T05:12:16.153Z,71.74
2023-04-23T05:14:44.230Z,73.38
2023-04-23T05:17:13.608Z,73.51
2023-04-23T05:19:41.496Z,74.09
2023-04-23T05:22:09.493Z,71.83
2023-04-23T05:24:37.386Z,72.18
2023-04-23T05:27:05.255Z,71.37
2023-04-23T05:29:33.241Z,71.26
2023-04-23T05:32:01.173Z,72.15
2023-04-23T05:34:30.534Z,71.74
2023-04-23T05:36:58.504Z,71.85
2023-04-23T05:39:26.472Z,71.29
2023-04-23T05:41:54.605Z,69.57
2023-04-23T05:44:22.678Z,69.19
2023-04-23T05:46:50.552Z,68.14
2023-04-23T05:49:18.420Z,68.71
2023-04-23T05:51:47.771Z,67.92
2023-04-23T05:54:15.614Z,67.42
2023-04-23T05:56:43.514Z,66.17
2023-04-23T05:59:11.720Z,65.75
2023-04-23T06:01:39.682Z,65.66
2023-04-23T06:04:08.544Z,65.42
2023-04-23T06:06:36.594Z,66.70
2023-04-23T06:09:07.016Z,66.74
2023-04-23T06:11:36.207Z,66.11
2023-04-23T06:14:04.460Z,65.36
2023-04-23T06:16:32.473Z,65.61
2023-04-23T06:19:00.377Z,65.34
2023-04-23T06:21:28.425Z,64.79
2023-04-23T06:23:56.272Z,63.62
2023-04-23T06:26:25.629Z,63.16
2023-04-23T06:28:56.955Z,60.81
2023-04-23T06:31:30.768Z,59.89
2023-04-23T06:33:58.819Z,60.59
2023-04-23T06:36:26.675Z,61.29
2023-04-23T06:38:54.552Z,59.17
2023-04-23T06:41:22.582Z,58.70
2023-04-23T06:44:03.093Z,59.80
2023-04-23T06:46:37.278Z,61.66
2023-04-23T06:49:05.251Z,60.20
2023-04-23T06:51:33.242Z,59.36
2023-04-23T06:54:01.111Z,60.55
2023-04-23T06:56:29.042Z,59.84
2023-04-23T06:58:57.023Z,60.22
2023-04-23T07:01:26.540Z,60.07
2023-04-23T07:03:54.869Z,59.98
2023-04-23T07:06:22.897Z,59.52
2023-04-23T07:08:50.777Z,60.41
2023-04-23T07:11:18.789Z,60.38
2023-04-23T07:13:47.061Z,60.12
2023-04-23T07:16:15.267Z,59.31
2023-04-23T07:18:44.596Z,59.38
2023-04-23T07:21:12.428Z,59.49
2023-04-23T07:23:40.354Z,58.39
2023-04-23T07:26:08.284Z,57.82
2023-04-23T07:28:36.228Z,56.65
2023-04-23T07:31:04.338Z,57.95
2023-04-23T07:33:32.388Z,57.19
2023-04-23T07:36:01.657Z,56.17
2023-04-23T07:38:29.713Z,55.71
2023-04-23T07:40:57.616Z,56.57
2023-04-23T07:43:25.554Z,57.01
2023-04-23T07:45:53.746Z,56.39
2023-04-23T07:48:21.665Z,58.16
2023-04-23T07:50:49.750Z,58.62
2023-04-23T07:53:19.292Z,56.52
2023-04-23T07:55:47.115Z,55.94
2023-04-23T07:58:15.232Z,54.25
2023-04-23T08:00:51.193Z,55.98
2023-04-23T08:03:19.672Z,54.59
2023-04-23T08:05:47.891Z,55.11
2023-04-23T08:08:18.537Z,53.93
2023-04-23T08:10:47.935Z,55.43
2023-04-23T08:13:15.895Z,54.29
2023-04-23T08:15:43.861Z,51.82
2023-04-23T08:18:11.809Z,52.18
2023-04-23T08:20:39.715Z,51.57
2023-04-23T08:23:14.862Z,51.06
2023-04-23T08:25:43.182Z,51.62
2023-04-23T08:28:12.392Z,50.80
2023-04-23T08:30:40.296Z,49.74
2023-04-23T08:33:08.274Z,51.91
2023-04-23T08:35:36.217Z,51.67
2023-04-23T08:38:04.160Z,49.36
2023-04-23T08:40:34.096Z,49.50
2023-04-23T08:43:04.152Z,49.16
2023-04-23T08:45:41.513Z,48.93
2023-04-23T08:48:11.670Z,48.94
2023-04-23T08:50:43.337Z,47.94
2023-04-23T08:53:11.986Z,48.09
2023-04-23T08:55:40.056Z,47.41
2023-04-23T08:58:08.116Z,47.69
2023-04-23T09:00:37.917Z,47.53
2023-04-23T09:03:07.256Z,47.54
2023-04-23T09:05:35.523Z,47.61
2023-04-23T09:08:03.494Z,48.85
2023-04-23T09:10:31.330Z,48.83
2023-04-23T09:12:59.224Z,49.98
2023-04-23T09:15:27.155Z,48.70
2023-04-23T09:17:57.447Z,46.22
2023-04-23T09:20:25.935Z,46.33
2023-04-23T09:22:53.812Z,47.74
2023-04-23T09:25:23.653Z,45.52
2023-04-23T09:27:52.697Z,44.38
2023-04-23T09:30:21.463Z,41.15
2023-04-23T09:32:49.806Z,41.27
2023-04-23T09:35:20.804Z,43.56
2023-04-23T09:37:50.843Z,43.63
2023-04-23T09:40:20.691Z,42.26
2023-04-23T09:42:49.882Z,43.71
2023-04-23T09:45:18.262Z,44.74
2023-04-23T09:47:51.755Z,44.30
2023-04-23T09:50:21.512Z,44.03
2023-04-23T09:52:56.347Z,42.37
2023-04-23T09:55:30.950Z,42.32
2023-04-23T09:57:59.691Z,42.20
2023-04-23T10:00:30.658Z,42.54
2023-04-23T10:03:01.191Z,42.14
2023-04-23T10:05:40.659Z,40.71
2023-04-23T10:08:19.634Z,42.54
2023-04-23T10:10:59.612Z,43.11
2023-04-23T10:13:35.686Z,42.44
2023-04-23T10:16:20.706Z,42.78
2023-04-23T10:18:51.746Z,43.93
2023-04-23T10:21:21.978Z,44.74
2023-04-23T10:23:52.453Z,45.45
2023-04-23T10:26:22.967Z,45.97
2023-04-23T10:28:55.401Z,44.90
2023-04-23T10:31:24.679Z,42.92
2023-04-23T10:33:58.999Z,41.00
2023-04-23T10:36:29.733Z,41.21
2023-04-23T10:39:01.416Z,41.51
2023-04-23T10:41:40.008Z,41.60
2023-04-23T10:44:08.184Z,39.86
2023-04-23T10:46:39.529Z,40.44
2023-04-23T10:49:14.420Z,41.02
2023-04-23T10:54:20.801Z,40.69
2023-04-23T10:56:59.974Z,38.30
2023-04-23T10:59:30.182Z,38.61
2023-04-23T11:02:02.217Z,37.52
2023-04-23T11:04:31.705Z,36.34
2023-04-23T11:07:06.493Z,34.23
2023-04-23T11:09:42.975Z,33.11
2023-04-23T11:12:15.349Z,34.91
2023-04-23T11:14:48.094Z,33.25
2023-04-23T11:17:18.330Z,31.84
2023-04-23T11:20:10.284Z,32.67
2023-04-23T11:22:40.795Z,32.79
2023-04-23T11:25:11.164Z,33.28
2023-04-23T11:27:40.596Z,32.95
2023-04-23T11:30:13.489Z,31.86
2023-04-23T11:32:42.182Z,35.89
2023-04-23T11:35:13.743Z,37.17
2023-04-23T11:37:45.252Z,36.30
2023-04-23T11:40:19.022Z,36.47
2023-04-23T11:42:49.362Z,37.57
2023-04-23T11:45:21.218Z,36.55
2023-04-23T11:47:53.561Z,36.49
2023-04-23T11:50:23.078Z,37.16
2023-04-23T11:52:52.797Z,37.24
2023-04-23T11:55:21.646Z,34.67
2023-04-23T11:57:52.255Z,33.36
2023-04-23T12:00:22.196Z,32.31
2023-04-23T12:02:54.724Z,33.26
2023-04-23T12:05:23.863Z,31.91
2023-04-23T12:07:53.476Z,30.83
2023-04-23T12:10:22.588Z,33.06
2023-04-23T12:12:52.390Z,32.30
2023-04-23T12:15:20.747Z,33.72
2023-04-23T12:17:52.797Z,33.08
2023-04-23T12:20:22.250Z,33.92
2023-04-23T12:22:50.517Z,34.67
2023-04-23T12:25:23.554Z,35.02
2023-04-23T12:27:51.467Z,34.37
2023-04-23T12:30:19.369Z,34.94
2023-04-23T12:32:47.261Z,34.14
2023-04-23T12:35:15.242Z,34.55
2023-04-23T12:37:43.189Z,34.38
2023-04-23T12:40:12.042Z,33.94
2023-04-23T12:42:41.694Z,32.53
2023-04-23T12:45:11.104Z,32.45
2023-04-23T12:47:39.131Z,32.06
2023-04-23T12:50:08.495Z,32.05
2023-04-23T12:52:36.484Z,33.69
2023-04-23T12:55:05.146Z,29.15
2023-04-23T12:57:33.258Z,25.06
2023-04-23T13:00:02.531Z,23.67
2023-04-23T13:02:30.839Z,21.42
2023-04-23T13:05:01.155Z,21.58
2023-04-23T13:07:29.491Z,22.03
2023-04-23T13:09:59.456Z,21.01
2023-04-23T13:12:27.467Z,21.08
2023-04-23T13:14:55.482Z,20.93
2023-04-23T13:17:26.272Z,19.78
2023-04-23T13:19:54.564Z,17.99
2023-04-23T13:22:23.115Z,19.58
2023-04-23T13:24:51.083Z,21.79
2023-04-23T13:27:19.037Z,23.42
2023-04-23T13:29:46.956Z,22.12
2023-04-23T13:32:16.304Z,25.55
2023-04-23T13:34:45.615Z,25.29
2023-04-23T13:37:13.472Z,25.16
2023-04-23T13:39:41.922Z,24.59
2023-04-23T13:42:10.407Z,21.21
2023-04-23T13:44:38.720Z,22.35
2023-04-23T13:47:06.864Z,21.67
2023-04-23T13:49:34.850Z,22.10
2023-04-23T13:52:06.437Z,24.51
2023-04-23T13:54:35.505Z,24.99
2023-04-23T13:57:03.608Z,26.45
2023-04-23T13:59:31.459Z,24.26
2023-04-23T14:01:59.468Z,24.63
2023-04-23T14:04:27.447Z,26.39
2023-04-23T14:06:55.486Z,24.50
2023-04-23T14:09:25.204Z,22.75
2023-04-23T14:11:53.327Z,23.95
2023-04-23T14:14:21.316Z,26.38
2023-04-23T14:16:49.257Z,23.98
2023-04-23T14:19:17.197Z,26.41
2023-04-23T14:21:46.169Z,27.16
2023-04-23T14:24:20.601Z,27.94
2023-04-23T14:26:50.308Z,24.59
2023-04-23T14:29:26.289Z,23.57
2023-04-23T14:31:54.656Z,24.20
2023-04-23T14:34:22.718Z,24.64
2023-04-23T14:36:52.998Z,24.80
2023-04-23T14:39:23.079Z,23.06
2023-04-23T14:41:52.337Z,25.61
2023-04-23T14:44:21.013Z,26.08
2023-04-23T14:46:51.053Z,27.14
2023-04-23T14:49:19.052Z,26.40
2023-04-23T14:51:47.086Z,25.86
2023-04-23T14:54:14.953Z,28.82
2023-04-23T14:56:43.098Z,29.08
2023-04-23T14:59:12.593Z,27.54
2023-04-23T15:01:40.822Z,27.69
2023-04-23T15:04:08.887Z,27.97
2023-04-23T15:06:37.168Z,27.76
2023-04-23T15:09:05.803Z,29.79
2023-04-23T15:11:34.052Z,28.84
2023-04-23T15:14:07.471Z,28.28
2023-04-23T15:16:47.374Z,28.78
2023-04-23T15:19:18.365Z,28.78
2023-04-23T15:21:47.274Z,28.82
2023-04-23T15:24:15.553Z,30.51
2023-04-23T15:26:46.010Z,29.68
2023-04-23T15:29:14.485Z,30.63
2023-04-23T15:31:43.777Z,31.78
2023-04-23T15:34:12.262Z,32.93
2023-04-23T15:36:40.400Z,32.90
2023-04-23T15:39:09.163Z,33.40
2023-04-23T15:41:40.249Z,33.86
2023-04-23T15:44:10.793Z,34.27
2023-04-23T15:46:38.826Z,34.37
2023-04-23T15:49:08.320Z,34.48
2023-04-23T15:51:37.118Z,35.31
2023-04-23T15:54:08.622Z,35.06
2023-04-23T15:56:37.340Z,35.43
2023-04-23T15:59:05.409Z,35.94
2023-04-23T16:01:33.665Z,36.40
2023-04-23T16:06:33.892Z,37.48
2023-04-23T16:09:03.470Z,37.85
2023-04-23T16:11:31.488Z,36.00
2023-04-23T16:13:59.441Z,36.79
2023-04-23T16:16:27.478Z,34.83
2023-04-23T16:18:57.122Z,34.50
2023-04-23T16:21:25.837Z,34.30
2023-04-23T16:23:55.070Z,34.75
2023-04-23T16:26:23.060Z,35.85
2023-04-23T16:28:56.353Z,36.42
2023-04-23T16:31:29.149Z,35.85
2023-04-23T16:33:57.467Z,35.68
2023-04-23T16:36:25.433Z,34.09
2023-04-23T16:38:53.496Z,34.30
2023-04-23T16:41:22.991Z,33.80
2023-04-23T16:43:50.998Z,34.10
2023-04-23T16:46:19.096Z,34.92
2023-04-23T16:48:47.367Z,35.46
2023-04-23T16:51:15.436Z,36.68
2023-04-23T16:53:43.301Z,37.48
2023-04-23T16:56:11.414Z,37.41
2023-04-23T16:58:40.957Z,38.33
2023-04-23T17:01:08.963Z,40.77
2023-04-23T17:03:37.145Z,39.57
2023-04-23T17:06:13.258Z,39.12
2023-04-23T17:08:41.508Z,40.77
2023-04-23T17:11:09.400Z,40.64
2023-04-23T17:13:37.427Z,40.32
2023-04-23T17:16:06.866Z,40.83
2023-04-23T17:18:34.700Z,40.61
2023-04-23T17:21:02.632Z,40.29
2023-04-23T17:23:30.635Z,41.04
2023-04-23T17:25:58.507Z,42.54
2023-04-23T17:28:26.553Z,42.44
2023-04-23T17:30:55.886Z,44.46
2023-04-23T17:33:26.194Z,45.59
2023-04-23T17:35:55.327Z,46.04
2023-04-23T17:38:24.708Z,46.91
2023-04-23T17:40:53.693Z,48.88
2023-04-23T17:43:22.365Z,52.28
2023-04-23T17:45:53.828Z,55.67
2023-04-23T17:48:23.072Z,59.24
2023-04-23T17:50:54.509Z,60.73
2023-04-23T17:53:22.498Z,62.31
2023-04-23T17:55:50.450Z,64.20
2023-04-23T17:58:19.333Z,65.32
2023-04-23T18:00:47.479Z,66.56
2023-04-23T18:03:18.734Z,67.33
2023-04-23T18:05:46.916Z,68.98
2023-04-23T18:08:19.377Z,68.95
2023-04-23T18:10:47.408Z,67.66
2023-04-23T18:13:15.405Z,68.03
2023-04-23T18:15:45.723Z,68.21
2023-04-23T18:18:13.598Z,68.10
2023-04-23T18:20:41.507Z,68.73
2023-04-23T18:23:10.340Z,66.97
2023-04-23T18:25:39.750Z,67.24
2023-04-23T18:28:07.622Z,68.48
2023-04-23T18:30:38.044Z,68.12
2023-04-23T18:33:12.052Z,64.62
2023-04-23T18:35:43.709Z,62.66
2023-04-23T18:38:24.337Z,61.15
2023-04-23T18:40:53.780Z,60.49
2023-04-23T18:43:24.786Z,61.09
2023-04-23T18:45:52.906Z,61.91
2023-04-23T18:48:47.450Z,63.91
2023-04-23T18:51:21.323Z,67.18
2023-04-23T18:53:49.547Z,68.06
2023-04-23T18:56:18.835Z,68.47
2023-04-23T18:58:46.777Z,63.36
2023-04-23T19:01:15.151Z,60.80
2023-04-23T19:03:43.460Z,60.49
2023-04-23T19:06:11.438Z,61.01
2023-04-23T19:08:39.394Z,61.47
2023-04-23T19:11:07.787Z,60.65
2023-04-23T19:13:37.078Z,60.24
2023-04-23T19:16:05.075Z,59.73
2023-04-23T19:18:33.164Z,59.41
2023-04-23T19:21:01.103Z,59.25
2023-04-23T19:23:28.997Z,59.73
2023-04-23T19:25:57.283Z,58.60
2023-04-23T19:28:25.684Z,58.27
2023-04-23T19:30:55.062Z,58.11
2023-04-23T19:33:23.774Z,58.61
2023-04-23T19:35:52.347Z,58.74
2023-04-23T19:38:20.367Z,58.49
2023-04-23T19:40:48.529Z,58.53
2023-04-23T19:43:16.426Z,58.10
2023-04-23T19:45:44.384Z,58.34
2023-04-23T19:48:13.943Z,58.39
2023-04-23T19:50:43.435Z,58.46
2023-04-23T19:53:11.420Z,58.38
2023-04-23T19:55:39.305Z,58.76
2023-04-23T19:58:07.216Z,58.67
2023-04-23T20:00:39.677Z,63.42
2023-04-23T20:03:08.875Z,60.00
2023-04-23T20:05:38.826Z,58.30
2023-04-23T20:08:11.160Z,58.31
2023-04-23T20:10:39.385Z,59.48
2023-04-23T20:13:07.231Z,62.56
2023-04-23T20:15:35.198Z,64.01
2023-04-23T20:18:03.302Z,64.15
2023-04-23T20:20:31.240Z,60.55
2023-04-23T20:23:00.789Z,58.64
2023-04-23T20:25:28.907Z,59.02
2023-04-23T20:28:00.094Z,58.56
2023-04-23T20:30:30.713Z,63.24
2023-04-23T20:33:08.931Z,64.65
2023-04-23T20:35:36.878Z,62.39
2023-04-23T20:38:06.479Z,58.62
2023-04-23T20:40:34.745Z,60.04
2023-04-23T20:43:04.603Z,62.92
2023-04-23T20:45:34.519Z,63.37
2023-04-23T20:48:03.830Z,62.81
2023-04-23T20:50:32.366Z,64.07
2023-04-23T20:53:00.391Z,61.74
2023-04-23T20:55:29.743Z,63.50
2023-04-23T20:57:57.821Z,62.83
2023-04-23T21:00:25.860Z,62.91
2023-04-23T21:02:54.011Z,63.40
2023-04-23T21:05:22.540Z,63.37
2023-04-23T21:07:50.800Z,63.92
2023-04-23T21:10:19.149Z,64.28
2023-04-23T21:12:48.734Z,63.08
2023-04-23T21:15:17.260Z,62.69
2023-04-23T21:17:45.319Z,61.72
2023-04-23T21:20:13.486Z,61.16
2023-04-23T21:22:41.570Z,60.42
2023-04-23T21:25:09.907Z,60.09
2023-04-23T21:27:38.123Z,59.72
2023-04-23T21:30:15.168Z,60.44
2023-04-23T21:32:43.279Z,61.14
2023-04-23T21:35:11.598Z,61.41
2023-04-23T21:37:39.485Z,57.75
2023-04-23T21:40:10.482Z,57.31
2023-04-23T21:42:38.626Z,54.97
2023-04-23T21:45:09.109Z,55.06
2023-04-23T21:47:37.268Z,53.44
2023-04-23T21:50:06.654Z,56.98
2023-04-23T21:52:34.620Z,57.48
2023-04-23T21:55:02.957Z,57.60
2023-04-23T21:57:30.993Z,58.28
2023-04-23T21:59:59.043Z,57.07
2023-04-23T22:02:28.690Z,56.90
2023-04-23T22:04:56.778Z,57.44
2023-04-23T22:07:26.797Z,58.09
2023-04-23T22:09:57.100Z,58.20
2023-04-23T22:12:25.008Z,57.74
2023-04-23T22:14:52.889Z,57.28
2023-04-23T22:17:21.984Z,56.28
2023-04-23T22:19:52.112Z,56.44
2023-04-23T22:22:19.982Z,55.57
2023-04-23T22:24:47.883Z,55.67
2023-04-23T22:27:15.923Z,52.33
2023-04-23T22:29:44.044Z,51.11
2023-04-23T22:32:12.252Z,50.17
2023-04-23T22:34:40.539Z,50.41
2023-04-23T22:37:09.996Z,51.17
2023-04-23T22:39:37.926Z,54.55
2023-04-23T22:42:06.162Z,54.09
2023-04-23T22:44:34.032Z,54.10
2023-04-23T22:47:01.905Z,54.47
2023-04-23T22:49:29.755Z,54.49
2023-04-23T22:51:57.690Z,55.00
2023-04-23T22:54:27.078Z,55.11
2023-04-23T22:56:55.003Z,55.42
2023-04-23T22:59:23.130Z,55.40
2023-04-23T23:01:51.184Z,55.61
2023-04-23T23:04:19.233Z,50.96
2023-04-23T23:06:47.106Z,50.54
2023-04-23T23:09:15.194Z,51.39
2023-04-23T23:11:44.556Z,50.06
2023-04-23T23:14:12.911Z,50.24
2023-04-23T23:16:41.021Z,49.98
2023-04-23T23:19:09.210Z,49.73
2023-04-23T23:21:37.116Z,50.94
2023-04-23T23:24:06.019Z,49.66
2023-04-23T23:26:33.943Z,51.20
2023-04-23T23:29:03.429Z,50.79
2023-04-23T23:31:32.307Z,50.63
2023-04-23T23:34:00.204Z,51.01
2023-04-23T23:36:28.147Z,50.64
2023-04-23T23:38:56.043Z,54.44
2023-04-23T23:41:23.917Z,51.97
2023-04-23T23:43:51.757Z,51.39
2023-04-23T23:46:21.202Z,51.31
2023-04-23T23:48:49.160Z,52.83
2023-04-23T23:51:17.178Z,53.12
2023-04-23T23:53:45.113Z,51.37
2023-04-23T23:56:13.049Z,51.31
2023-04-23T23:58:40.959Z,53.27
